sensor_id;sensor_type;location;lat;lon;timestamp;P1;durP1;ratioP1;P2;durP2;ratioP2
42726;SDS011;28372;56.832;60.658;2023-04-24T00:00:32;4.38;;;1.70;;
42726;SDS011;28372;56.832;60.658;2023-04-24T00:03:00;4.63;;;1.90;;
42726;SDS011;28372;56.832;60.658;2023-04-24T00:05:27;4.40;;;1.67;;
42726;SDS011;28372;56.832;60.658;2023-04-24T00:07:55;4.60;;;1.63;;
42726;SDS011;28372;56.832;60.658;2023-04-24T00:10:22;7.25;;;2.30;;
42726;SDS011;28372;56.832;60.658;2023-04-24T00:12:50;5.70;;;1.75;;
42726;SDS011;28372;56.832;60.658;2023-04-24T00:15:18;2.85;;;1.60;;
42726;SDS011;28372;56.832;60.658;2023-04-24T00:17:45;5.82;;;1.70;;
42726;SDS011;28372;56.832;60.658;2023-04-24T00:20:13;5.57;;;1.80;;
42726;SDS011;28372;56.832;60.658;2023-04-24T00:22:41;3.50;;;1.60;;
42726;SDS011;28372;56.832;60.658;2023-04-24T00:25:09;3.28;;;1.52;;
42726;SDS011;28372;56.832;60.658;2023-04-24T00:27:36;5.03;;;1.80;;
42726;SDS011;28372;56.832;60.658;2023-04-24T00:30:05;4.20;;;1.70;;
42726;SDS011;28372;56.832;60.658;2023-04-24T00:32:34;6.30;;;1.80;;
42726;SDS011;28372;56.832;60.658;2023-04-24T00:35:01;5.25;;;1.90;;
42726;SDS011;28372;56.832;60.658;2023-04-24T00:37:29;3.17;;;1.63;;
42726;SDS011;28372;56.832;60.658;2023-04-24T00:39:57;5.05;;;1.85;;
42726;SDS011;28372;56.832;60.658;2023-04-24T00:42:24;5.80;;;2.00;;
42726;SDS011;28372;56.832;60.658;2023-04-24T00:44:52;6.32;;;2.17;;
42726;SDS011;28372;56.832;60.658;2023-04-24T00:47:20;5.50;;;2.17;;
42726;SDS011;28372;56.832;60.658;2023-04-24T00:49:48;4.65;;;1.90;;
42726;SDS011;28372;56.832;60.658;2023-04-24T00:52:16;6.00;;;2.20;;
42726;SDS011;28372;56.832;60.658;2023-04-24T00:54:44;6.05;;;2.28;;
42726;SDS011;28372;56.832;60.658;2023-04-24T00:57:12;6.32;;;2.58;;
42726;SDS011;28372;56.832;60.658;2023-04-24T00:59:42;6.55;;;2.70;;
42726;SDS011;28372;56.832;60.658;2023-04-24T01:02:11;7.70;;;2.90;;
42726;SDS011;28372;56.832;60.658;2023-04-24T01:04:39;7.15;;;2.63;;
42726;SDS011;28372;56.832;60.658;2023-04-24T01:07:08;6.07;;;2.83;;
42726;SDS011;28372;56.832;60.658;2023-04-24T01:09:37;7.63;;;2.85;;
42726;SDS011;28372;56.832;60.658;2023-04-24T01:12:09;8.65;;;3.20;;
42726;SDS011;28372;56.832;60.658;2023-04-24T01:14:37;12.32;;;3.45;;
42726;SDS011;28372;56.832;60.658;2023-04-24T01:17:05;10.23;;;3.55;;
42726;SDS011;28372;56.832;60.658;2023-04-24T01:19:32;9.35;;;3.70;;
42726;SDS011;28372;56.832;60.658;2023-04-24T01:22:02;8.50;;;3.58;;
42726;SDS011;28372;56.832;60.658;2023-04-24T01:24:30;12.48;;;3.70;;
42726;SDS011;28372;56.832;60.658;2023-04-24T01:26:58;10.35;;;4.05;;
42726;SDS011;28372;56.832;60.658;2023-04-24T01:29:25;9.73;;;3.63;;
42726;SDS011;28372;56.832;60.658;2023-04-24T01:31:54;11.55;;;4.03;;
42726;SDS011;28372;56.832;60.658;2023-04-24T01:34:22;11.48;;;3.60;;
42726;SDS011;28372;56.832;60.658;2023-04-24T01:36:50;9.90;;;3.80;;
42726;SDS011;28372;56.832;60.658;2023-04-24T01:39:18;10.40;;;4.90;;
42726;SDS011;28372;56.832;60.658;2023-04-24T01:41:47;8.65;;;4.07;;
42726;SDS011;28372;56.832;60.658;2023-04-24T01:44:18;9.68;;;4.30;;
42726;SDS011;28372;56.832;60.658;2023-04-24T01:46:47;10.75;;;4.13;;
42726;SDS011;28372;56.832;60.658;2023-04-24T01:49:14;7.72;;;3.78;;
42726;SDS011;28372;56.832;60.658;2023-04-24T01:51:44;12.02;;;4.35;;
42726;SDS011;28372;56.832;60.658;2023-04-24T01:54:12;14.23;;;4.40;;
42726;SDS011;28372;56.832;60.658;2023-04-24T01:56:43;13.43;;;5.25;;
42726;SDS011;28372;56.832;60.658;2023-04-24T01:59:11;15.05;;;5.43;;
42726;SDS011;28372;56.832;60.658;2023-04-24T02:01:39;12.45;;;5.30;;
42726;SDS011;28372;56.832;60.658;2023-04-24T02:04:07;13.98;;;5.57;;
42726;SDS011;28372;56.832;60.658;2023-04-24T02:06:35;16.17;;;5.93;;
42726;SDS011;28372;56.832;60.658;2023-04-24T02:09:02;13.35;;;6.20;;
42726;SDS011;28372;56.832;60.658;2023-04-24T02:11:30;17.10;;;7.40;;
42726;SDS011;28372;56.832;60.658;2023-04-24T02:13:57;15.75;;;7.60;;
42726;SDS011;28372;56.832;60.658;2023-04-24T02:16:25;13.82;;;6.47;;
42726;SDS011;28372;56.832;60.658;2023-04-24T02:18:53;13.02;;;5.85;;
42726;SDS011;28372;56.832;60.658;2023-04-24T02:21:20;15.95;;;6.45;;
42726;SDS011;28372;56.832;60.658;2023-04-24T02:23:48;14.13;;;5.93;;
42726;SDS011;28372;56.832;60.658;2023-04-24T02:26:15;13.00;;;5.65;;
42726;SDS011;28372;56.832;60.658;2023-04-24T02:28:43;13.48;;;5.68;;
42726;SDS011;28372;56.832;60.658;2023-04-24T02:31:10;13.23;;;5.45;;
42726;SDS011;28372;56.832;60.658;2023-04-24T02:33:39;13.50;;;5.38;;
42726;SDS011;28372;56.832;60.658;2023-04-24T02:36:07;15.15;;;5.20;;
42726;SDS011;28372;56.832;60.658;2023-04-24T02:38:35;14.73;;;4.78;;
42726;SDS011;28372;56.832;60.658;2023-04-24T02:41:04;10.90;;;4.70;;
42726;SDS011;28372;56.832;60.658;2023-04-24T02:43:33;11.48;;;4.70;;
42726;SDS011;28372;56.832;60.658;2023-04-24T02:46:00;10.82;;;4.80;;
42726;SDS011;28372;56.832;60.658;2023-04-24T02:48:28;14.02;;;4.38;;
42726;SDS011;28372;56.832;60.658;2023-04-24T02:50:56;15.45;;;4.22;;
42726;SDS011;28372;56.832;60.658;2023-04-24T02:53:24;12.55;;;4.35;;
42726;SDS011;28372;56.832;60.658;2023-04-24T02:55:52;11.32;;;4.28;;
42726;SDS011;28372;56.832;60.658;2023-04-24T02:58:20;19.00;;;3.80;;
42726;SDS011;28372;56.832;60.658;2023-04-24T03:00:47;10.30;;;3.75;;
42726;SDS011;28372;56.832;60.658;2023-04-24T03:03:15;10.88;;;3.72;;
42726;SDS011;28372;56.832;60.658;2023-04-24T03:05:43;9.05;;;3.05;;
42726;SDS011;28372;56.832;60.658;2023-04-24T03:08:10;8.25;;;3.00;;
42726;SDS011;28372;56.832;60.658;2023-04-24T03:10:38;8.40;;;2.40;;
42726;SDS011;28372;56.832;60.658;2023-04-24T03:13:07;8.13;;;2.70;;
42726;SDS011;28372;56.832;60.658;2023-04-24T03:15:34;7.40;;;2.75;;
42726;SDS011;28372;56.832;60.658;2023-04-24T03:18:02;8.27;;;2.50;;
42726;SDS011;28372;56.832;60.658;2023-04-24T03:20:29;9.10;;;2.05;;
42726;SDS011;28372;56.832;60.658;2023-04-24T03:22:58;7.40;;;2.38;;
42726;SDS011;28372;56.832;60.658;2023-04-24T03:25:26;8.88;;;2.42;;
42726;SDS011;28372;56.832;60.658;2023-04-24T03:27:54;12.68;;;3.10;;
42726;SDS011;28372;56.832;60.658;2023-04-24T03:30:43;8.45;;;2.60;;
42726;SDS011;28372;56.832;60.658;2023-04-24T03:33:12;12.38;;;2.83;;
42726;SDS011;28372;56.832;60.658;2023-04-24T03:35:48;9.73;;;2.58;;
42726;SDS011;28372;56.832;60.658;2023-04-24T03:38:16;9.57;;;2.60;;
42726;SDS011;28372;56.832;60.658;2023-04-24T03:40:52;8.35;;;2.97;;
42726;SDS011;28372;56.832;60.658;2023-04-24T03:43:40;11.27;;;2.92;;
42726;SDS011;28372;56.832;60.658;2023-04-24T03:46:09;10.52;;;2.58;;
42726;SDS011;28372;56.832;60.658;2023-04-24T03:48:41;8.65;;;2.83;;
42726;SDS011;28372;56.832;60.658;2023-04-24T03:51:09;10.68;;;3.10;;
42726;SDS011;28372;56.832;60.658;2023-04-24T03:53:41;12.13;;;3.10;;
42726;SDS011;28372;56.832;60.658;2023-04-24T03:56:11;12.73;;;3.47;;
42726;SDS011;28372;56.832;60.658;2023-04-24T03:58:40;11.65;;;3.08;;
42726;SDS011;28372;56.832;60.658;2023-04-24T04:01:08;6.72;;;2.90;;
42726;SDS011;28372;56.832;60.658;2023-04-24T04:03:45;16.27;;;3.60;;
42726;SDS011;28372;56.832;60.658;2023-04-24T04:06:18;11.40;;;3.60;;
42726;SDS011;28372;56.832;60.658;2023-04-24T04:08:46;10.63;;;3.42;;
42726;SDS011;28372;56.832;60.658;2023-04-24T04:11:13;11.27;;;3.70;;
42726;SDS011;28372;56.832;60.658;2023-04-24T04:13:41;10.13;;;3.75;;
42726;SDS011;28372;56.832;60.658;2023-04-24T04:16:09;10.10;;;3.53;;
42726;SDS011;28372;56.832;60.658;2023-04-24T04:18:37;13.75;;;3.60;;
42726;SDS011;28372;56.832;60.658;2023-04-24T04:21:06;12.35;;;3.75;;
42726;SDS011;28372;56.832;60.658;2023-04-24T04:23:34;10.82;;;3.50;;
42726;SDS011;28372;56.832;60.658;2023-04-24T04:26:08;8.60;;;3.42;;
42726;SDS011;28372;56.832;60.658;2023-04-24T04:28:54;9.00;;;3.38;;
42726;SDS011;28372;56.832;60.658;2023-04-24T04:31:21;13.38;;;4.20;;
42726;SDS011;28372;56.832;60.658;2023-04-24T04:33:51;9.38;;;3.55;;
42726;SDS011;28372;56.832;60.658;2023-04-24T04:36:18;10.30;;;3.50;;
42726;SDS011;28372;56.832;60.658;2023-04-24T04:38:51;12.02;;;3.35;;
42726;SDS011;28372;56.832;60.658;2023-04-24T04:41:37;8.00;;;2.60;;
42726;SDS011;28372;56.832;60.658;2023-04-24T04:44:09;8.98;;;3.03;;
42726;SDS011;28372;56.832;60.658;2023-04-24T04:46:36;7.30;;;2.40;;
42726;SDS011;28372;56.832;60.658;2023-04-24T04:49:25;9.98;;;2.00;;
42726;SDS011;28372;56.832;60.658;2023-04-24T04:51:55;9.40;;;2.20;;
42726;SDS011;28372;56.832;60.658;2023-04-24T04:54:25;5.53;;;1.88;;
42726;SDS011;28372;56.832;60.658;2023-04-24T04:56:53;5.25;;;2.22;;
42726;SDS011;28372;56.832;60.658;2023-04-24T04:59:21;5.68;;;2.17;;
42726;SDS011;28372;56.832;60.658;2023-04-24T05:01:55;8.80;;;2.17;;
42726;SDS011;28372;56.832;60.658;2023-04-24T05:04:23;6.65;;;2.05;;
42726;SDS011;28372;56.832;60.658;2023-04-24T05:06:51;5.40;;;2.17;;
42726;SDS011;28372;56.832;60.658;2023-04-24T05:09:21;4.50;;;2.05;;
42726;SDS011;28372;56.832;60.658;2023-04-24T05:11:55;7.97;;;2.20;;
42726;SDS011;28372;56.832;60.658;2023-04-24T05:14:24;5.05;;;1.98;;
42726;SDS011;28372;56.832;60.658;2023-04-24T05:16:52;5.18;;;2.30;;
42726;SDS011;28372;56.832;60.658;2023-04-24T05:19:22;4.20;;;1.90;;
42726;SDS011;28372;56.832;60.658;2023-04-24T05:21:50;5.03;;;2.00;;
42726;SDS011;28372;56.832;60.658;2023-04-24T05:24:17;8.63;;;2.60;;
42726;SDS011;28372;56.832;60.658;2023-04-24T05:26:54;9.95;;;2.67;;
42726;SDS011;28372;56.832;60.658;2023-04-24T05:29:28;7.40;;;2.60;;
42726;SDS011;28372;56.832;60.658;2023-04-24T05:31:57;5.70;;;2.20;;
42726;SDS011;28372;56.832;60.658;2023-04-24T05:34:28;6.32;;;2.30;;
42726;SDS011;28372;56.832;60.658;2023-04-24T05:36:56;6.00;;;2.38;;
42726;SDS011;28372;56.832;60.658;2023-04-24T05:39:25;7.07;;;2.58;;
42726;SDS011;28372;56.832;60.658;2023-04-24T05:41:53;7.65;;;2.20;;
42726;SDS011;28372;56.832;60.658;2023-04-24T05:44:22;9.90;;;2.00;;
42726;SDS011;28372;56.832;60.658;2023-04-24T05:46:49;7.07;;;1.73;;
42726;SDS011;28372;56.832;60.658;2023-04-24T05:49:17;4.18;;;1.10;;
42726;SDS011;28372;56.832;60.658;2023-04-24T05:51:45;4.07;;;1.00;;
42726;SDS011;28372;56.832;60.658;2023-04-24T05:54:14;3.72;;;1.20;;
42726;SDS011;28372;56.832;60.658;2023-04-24T05:56:42;7.25;;;1.40;;
42726;SDS011;28372;56.832;60.658;2023-04-24T05:59:13;4.80;;;0.90;;
42726;SDS011;28372;56.832;60.658;2023-04-24T06:01:41;6.63;;;1.20;;
42726;SDS011;28372;56.832;60.658;2023-04-24T06:04:14;7.47;;;1.35;;
42726;SDS011;28372;56.832;60.658;2023-04-24T06:06:42;4.90;;;1.33;;
42726;SDS011;28372;56.832;60.658;2023-04-24T06:09:09;5.45;;;1.25;;
42726;SDS011;28372;56.832;60.658;2023-04-24T06:11:38;5.88;;;1.30;;
42726;SDS011;28372;56.832;60.658;2023-04-24T06:14:08;2.80;;;1.00;;
42726;SDS011;28372;56.832;60.658;2023-04-24T06:16:36;4.55;;;0.98;;
42726;SDS011;28372;56.832;60.658;2023-04-24T06:19:26;5.80;;;0.90;;
42726;SDS011;28372;56.832;60.658;2023-04-24T06:21:53;3.28;;;0.93;;
42726;SDS011;28372;56.832;60.658;2023-04-24T06:24:21;6.25;;;1.00;;
42726;SDS011;28372;56.832;60.658;2023-04-24T06:26:50;6.35;;;1.20;;
42726;SDS011;28372;56.832;60.658;2023-04-24T06:29:18;4.07;;;1.20;;
42726;SDS011;28372;56.832;60.658;2023-04-24T06:31:46;4.57;;;1.20;;
42726;SDS011;28372;56.832;60.658;2023-04-24T06:34:13;5.75;;;1.23;;
42726;SDS011;28372;56.832;60.658;2023-04-24T06:36:41;6.50;;;1.40;;
42726;SDS011;28372;56.832;60.658;2023-04-24T06:39:08;7.60;;;1.48;;
42726;SDS011;28372;56.832;60.658;2023-04-24T06:41:36;6.55;;;1.35;;
42726;SDS011;28372;56.832;60.658;2023-04-24T06:44:03;4.15;;;1.13;;
42726;SDS011;28372;56.832;60.658;2023-04-24T06:46:31;5.65;;;1.40;;
42726;SDS011;28372;56.832;60.658;2023-04-24T06:48:59;5.30;;;1.20;;
42726;SDS011;28372;56.832;60.658;2023-04-24T06:51:27;6.60;;;1.30;;
42726;SDS011;28372;56.832;60.658;2023-04-24T06:53:54;8.50;;;1.20;;
42726;SDS011;28372;56.832;60.658;2023-04-24T06:56:25;5.93;;;1.35;;
42726;SDS011;28372;56.832;60.658;2023-04-24T06:58:52;4.20;;;1.35;;
42726;SDS011;28372;56.832;60.658;2023-04-24T07:01:20;4.55;;;1.20;;
42726;SDS011;28372;56.832;60.658;2023-04-24T07:03:48;3.15;;;1.02;;
42726;SDS011;28372;56.832;60.658;2023-04-24T07:06:15;4.50;;;1.13;;
42726;SDS011;28372;56.832;60.658;2023-04-24T07:08:45;5.07;;;1.20;;
42726;SDS011;28372;56.832;60.658;2023-04-24T07:11:13;3.10;;;1.17;;
42726;SDS011;28372;56.832;60.658;2023-04-24T07:13:40;3.78;;;1.10;;
42726;SDS011;28372;56.832;60.658;2023-04-24T07:16:11;3.65;;;1.20;;
42726;SDS011;28372;56.832;60.658;2023-04-24T07:18:39;4.05;;;1.30;;
42726;SDS011;28372;56.832;60.658;2023-04-24T07:21:06;4.03;;;1.27;;
42726;SDS011;28372;56.832;60.658;2023-04-24T07:23:39;3.33;;;1.10;;
42726;SDS011;28372;56.832;60.658;2023-04-24T07:26:09;3.75;;;1.17;;
42726;SDS011;28372;56.832;60.658;2023-04-24T07:28:41;3.92;;;1.17;;
42726;SDS011;28372;56.832;60.658;2023-04-24T07:31:12;4.68;;;1.05;;
42726;SDS011;28372;56.832;60.658;2023-04-24T07:33:40;7.43;;;1.70;;
42726;SDS011;28372;56.832;60.658;2023-04-24T07:36:07;5.05;;;1.20;;
42726;SDS011;28372;56.832;60.658;2023-04-24T07:38:35;7.72;;;1.33;;
42726;SDS011;28372;56.832;60.658;2023-04-24T07:41:02;6.10;;;1.20;;
42726;SDS011;28372;56.832;60.658;2023-04-24T07:43:29;2.95;;;1.00;;
42726;SDS011;28372;56.832;60.658;2023-04-24T07:45:57;3.92;;;1.27;;
42726;SDS011;28372;56.832;60.658;2023-04-24T07:48:25;3.75;;;1.30;;
42726;SDS011;28372;56.832;60.658;2023-04-24T07:50:53;3.40;;;1.10;;
42726;SDS011;28372;56.832;60.658;2023-04-24T07:53:21;4.25;;;1.10;;
42726;SDS011;28372;56.832;60.658;2023-04-24T07:55:48;4.78;;;1.10;;
42726;SDS011;28372;56.832;60.658;2023-04-24T07:58:16;4.00;;;1.23;;
42726;SDS011;28372;56.832;60.658;2023-04-24T08:00:44;3.75;;;1.17;;
42726;SDS011;28372;56.832;60.658;2023-04-24T08:03:11;3.55;;;1.00;;
42726;SDS011;28372;56.832;60.658;2023-04-24T08:05:40;7.22;;;1.20;;
42726;SDS011;28372;56.832;60.658;2023-04-24T08:08:09;3.60;;;1.23;;
42726;SDS011;28372;56.832;60.658;2023-04-24T08:10:37;3.38;;;1.10;;
42726;SDS011;28372;56.832;60.658;2023-04-24T08:13:04;3.47;;;1.00;;
42726;SDS011;28372;56.832;60.658;2023-04-24T08:15:32;4.28;;;0.95;;
42726;SDS011;28372;56.832;60.658;2023-04-24T08:17:59;3.08;;;1.23;;
42726;SDS011;28372;56.832;60.658;2023-04-24T08:20:27;4.35;;;1.30;;
42726;SDS011;28372;56.832;60.658;2023-04-24T08:22:55;4.60;;;1.33;;
42726;SDS011;28372;56.832;60.658;2023-04-24T08:25:23;5.07;;;1.15;;
42726;SDS011;28372;56.832;60.658;2023-04-24T08:27:51;5.70;;;1.25;;
42726;SDS011;28372;56.832;60.658;2023-04-24T08:30:19;10.43;;;1.38;;
42726;SDS011;28372;56.832;60.658;2023-04-24T08:32:47;6.80;;;1.20;;
42726;SDS011;28372;56.832;60.658;2023-04-24T08:35:14;6.72;;;1.27;;
42726;SDS011;28372;56.832;60.658;2023-04-24T08:37:42;5.10;;;1.20;;
42726;SDS011;28372;56.832;60.658;2023-04-24T08:40:13;4.82;;;1.30;;
42726;SDS011;28372;56.832;60.658;2023-04-24T08:42:42;4.93;;;1.20;;
42726;SDS011;28372;56.832;60.658;2023-04-24T08:45:12;4.35;;;1.13;;
42726;SDS011;28372;56.832;60.658;2023-04-24T08:47:40;4.82;;;1.30;;
42726;SDS011;28372;56.832;60.658;2023-04-24T08:50:09;6.10;;;1.20;;
42726;SDS011;28372;56.832;60.658;2023-04-24T08:52:38;3.35;;;1.25;;
42726;SDS011;28372;56.832;60.658;2023-04-24T08:55:05;5.45;;;1.30;;
42726;SDS011;28372;56.832;60.658;2023-04-24T08:57:33;5.03;;;1.20;;
42726;SDS011;28372;56.832;60.658;2023-04-24T09:00:02;4.22;;;1.10;;
42726;SDS011;28372;56.832;60.658;2023-04-24T09:02:31;5.93;;;1.00;;
42726;SDS011;28372;56.832;60.658;2023-04-24T09:05:02;5.65;;;1.30;;
42726;SDS011;28372;56.832;60.658;2023-04-24T09:07:30;5.05;;;1.10;;
42726;SDS011;28372;56.832;60.658;2023-04-24T09:10:01;6.18;;;1.45;;
42726;SDS011;28372;56.832;60.658;2023-04-24T09:12:29;3.38;;;1.00;;
42726;SDS011;28372;56.832;60.658;2023-04-24T09:14:57;3.85;;;1.10;;
42726;SDS011;28372;56.832;60.658;2023-04-24T09:17:26;4.95;;;1.08;;
42726;SDS011;28372;56.832;60.658;2023-04-24T09:19:55;2.53;;;1.13;;
42726;SDS011;28372;56.832;60.658;2023-04-24T09:22:22;4.13;;;1.00;;
42726;SDS011;28372;56.832;60.658;2023-04-24T09:24:59;3.22;;;1.05;;
42726;SDS011;28372;56.832;60.658;2023-04-24T09:27:30;2.78;;;1.25;;
42726;SDS011;28372;56.832;60.658;2023-04-24T09:29:58;2.13;;;1.02;;
42726;SDS011;28372;56.832;60.658;2023-04-24T09:32:29;2.70;;;1.25;;
42726;SDS011;28372;56.832;60.658;2023-04-24T09:35:11;3.45;;;1.30;;
42726;SDS011;28372;56.832;60.658;2023-04-24T09:37:41;3.83;;;1.42;;
42726;SDS011;28372;56.832;60.658;2023-04-24T09:40:11;3.30;;;1.27;;
42726;SDS011;28372;56.832;60.658;2023-04-24T09:42:52;5.70;;;1.35;;
42726;SDS011;28372;56.832;60.658;2023-04-24T09:45:22;2.50;;;1.20;;
42726;SDS011;28372;56.832;60.658;2023-04-24T09:47:55;2.55;;;1.20;;
42726;SDS011;28372;56.832;60.658;2023-04-24T09:50:23;3.13;;;1.50;;
42726;SDS011;28372;56.832;60.658;2023-04-24T09:53:24;2.30;;;1.27;;
42726;SDS011;28372;56.832;60.658;2023-04-24T09:55:50;3.03;;;1.10;;
42726;SDS011;28372;56.832;60.658;2023-04-24T09:58:26;4.55;;;1.40;;
42726;SDS011;28372;56.832;60.658;2023-04-24T10:00:54;2.30;;;1.10;;
42726;SDS011;28372;56.832;60.658;2023-04-24T10:03:26;3.17;;;1.30;;
42726;SDS011;28372;56.832;60.658;2023-04-24T10:06:00;3.50;;;1.20;;
42726;SDS011;28372;56.832;60.658;2023-04-24T10:08:35;2.35;;;1.20;;
42726;SDS011;28372;56.832;60.658;2023-04-24T10:11:04;5.65;;;1.45;;
42726;SDS011;28372;56.832;60.658;2023-04-24T10:13:32;3.70;;;1.20;;
42726;SDS011;28372;56.832;60.658;2023-04-24T10:16:02;2.38;;;1.10;;
42726;SDS011;28372;56.832;60.658;2023-04-24T10:18:31;2.90;;;0.93;;
42726;SDS011;28372;56.832;60.658;2023-04-24T10:20:59;3.70;;;1.38;;
42726;SDS011;28372;56.832;60.658;2023-04-24T10:23:28;2.47;;;0.90;;
42726;SDS011;28372;56.832;60.658;2023-04-24T10:25:57;3.25;;;1.23;;
42726;SDS011;28372;56.832;60.658;2023-04-24T10:28:26;4.10;;;1.30;;
42726;SDS011;28372;56.832;60.658;2023-04-24T10:30:56;3.95;;;1.23;;
42726;SDS011;28372;56.832;60.658;2023-04-24T10:33:25;4.07;;;1.00;;
42726;SDS011;28372;56.832;60.658;2023-04-24T10:35:53;3.28;;;1.30;;
42726;SDS011;28372;56.832;60.658;2023-04-24T10:38:23;3.13;;;1.48;;
42726;SDS011;28372;56.832;60.658;2023-04-24T10:41:27;4.22;;;1.38;;
42726;SDS011;28372;56.832;60.658;2023-04-24T10:44:06;4.13;;;1.20;;
42726;SDS011;28372;56.832;60.658;2023-04-24T10:46:33;3.90;;;1.20;;
42726;SDS011;28372;56.832;60.658;2023-04-24T10:49:05;4.60;;;1.60;;
42726;SDS011;28372;56.832;60.658;2023-04-24T10:52:00;2.53;;;1.23;;
42726;SDS011;28372;56.832;60.658;2023-04-24T10:59:51;5.10;;;1.95;;
42726;SDS011;28372;56.832;60.658;2023-04-24T11:02:37;2.17;;;1.10;;
42726;SDS011;28372;56.832;60.658;2023-04-24T11:05:06;3.72;;;1.10;;
42726;SDS011;28372;56.832;60.658;2023-04-24T11:10:45;5.03;;;1.20;;
42726;SDS011;28372;56.832;60.658;2023-04-24T11:13:15;3.05;;;1.00;;
42726;SDS011;28372;56.832;60.658;2023-04-24T11:18:51;5.45;;;1.20;;
42726;SDS011;28372;56.832;60.658;2023-04-24T11:21:21;3.03;;;1.10;;
42726;SDS011;28372;56.832;60.658;2023-04-24T11:23:49;3.17;;;1.30;;
42726;SDS011;28372;56.832;60.658;2023-04-24T11:26:18;2.58;;;1.00;;
42726;SDS011;28372;56.832;60.658;2023-04-24T11:28:48;4.05;;;1.08;;
42726;SDS011;28372;56.832;60.658;2023-04-24T11:34:15;6.22;;;1.10;;
42726;SDS011;28372;56.832;60.658;2023-04-24T11:36:47;3.45;;;1.27;;
42726;SDS011;28372;56.832;60.658;2023-04-24T11:39:15;5.85;;;1.42;;
42726;SDS011;28372;56.832;60.658;2023-04-24T11:41:42;3.30;;;1.30;;
42726;SDS011;28372;56.832;60.658;2023-04-24T11:44:10;5.22;;;1.10;;
42726;SDS011;28372;56.832;60.658;2023-04-24T11:46:39;4.28;;;1.25;;
42726;SDS011;28372;56.832;60.658;2023-04-24T11:49:07;4.22;;;1.35;;
42726;SDS011;28372;56.832;60.658;2023-04-24T11:51:35;3.65;;;1.42;;
42726;SDS011;28372;56.832;60.658;2023-04-24T11:56:48;5.53;;;1.40;;
42726;SDS011;28372;56.832;60.658;2023-04-24T11:59:16;5.72;;;1.60;;
42726;SDS011;28372;56.832;60.658;2023-04-24T12:01:44;4.18;;;1.30;;
42726;SDS011;28372;56.832;60.658;2023-04-24T12:04:12;4.72;;;1.35;;
42726;SDS011;28372;56.832;60.658;2023-04-24T12:07:02;5.65;;;1.30;;
42726;SDS011;28372;56.832;60.658;2023-04-24T12:09:41;3.08;;;0.98;;
42726;SDS011;28372;56.832;60.658;2023-04-24T12:12:14;5.22;;;1.48;;
42726;SDS011;28372;56.832;60.658;2023-04-24T12:14:44;3.28;;;1.10;;
42726;SDS011;28372;56.832;60.658;2023-04-24T12:17:14;3.75;;;1.10;;
42726;SDS011;28372;56.832;60.658;2023-04-24T12:19:47;2.78;;;1.23;;
42726;SDS011;28372;56.832;60.658;2023-04-24T12:22:15;6.28;;;1.90;;
42726;SDS011;28372;56.832;60.658;2023-04-24T12:25:01;6.68;;;2.30;;
42726;SDS011;28372;56.832;60.658;2023-04-24T12:27:31;5.38;;;2.15;;
42726;SDS011;28372;56.832;60.658;2023-04-24T12:30:00;4.78;;;1.40;;
42726;SDS011;28372;56.832;60.658;2023-04-24T12:32:30;4.75;;;1.63;;
42726;SDS011;28372;56.832;60.658;2023-04-24T12:34:58;4.22;;;1.92;;
42726;SDS011;28372;56.832;60.658;2023-04-24T12:37:32;5.47;;;1.92;;
42726;SDS011;28372;56.832;60.658;2023-04-24T12:40:07;7.60;;;2.80;;
42726;SDS011;28372;56.832;60.658;2023-04-24T12:42:42;12.02;;;4.00;;
42726;SDS011;28372;56.832;60.658;2023-04-24T12:45:11;5.93;;;1.43;;
42726;SDS011;28372;56.832;60.658;2023-04-24T12:47:40;5.32;;;1.80;;
42726;SDS011;28372;56.832;60.658;2023-04-24T12:50:09;7.15;;;1.85;;
42726;SDS011;28372;56.832;60.658;2023-04-24T12:52:41;5.60;;;1.67;;
42726;SDS011;28372;56.832;60.658;2023-04-24T12:55:09;5.68;;;2.00;;
42726;SDS011;28372;56.832;60.658;2023-04-24T12:57:39;6.57;;;1.70;;
42726;SDS011;28372;56.832;60.658;2023-04-24T13:00:07;5.18;;;1.75;;
42726;SDS011;28372;56.832;60.658;2023-04-24T13:02:36;5.80;;;1.83;;
42726;SDS011;28372;56.832;60.658;2023-04-24T13:05:04;7.68;;;2.25;;
42726;SDS011;28372;56.832;60.658;2023-04-24T13:07:32;9.88;;;2.45;;
42726;SDS011;28372;56.832;60.658;2023-04-24T13:10:01;5.20;;;1.98;;
42726;SDS011;28372;56.832;60.658;2023-04-24T13:12:29;6.85;;;1.70;;
42726;SDS011;28372;56.832;60.658;2023-04-24T13:14:57;6.63;;;1.90;;
42726;SDS011;28372;56.832;60.658;2023-04-24T13:17:24;9.35;;;2.20;;
42726;SDS011;28372;56.832;60.658;2023-04-24T13:19:54;5.82;;;2.05;;
42726;SDS011;28372;56.832;60.658;2023-04-24T13:22:21;5.50;;;1.80;;
42726;SDS011;28372;56.832;60.658;2023-04-24T13:24:49;8.27;;;2.42;;
42726;SDS011;28372;56.832;60.658;2023-04-24T13:27:17;10.05;;;2.13;;
42726;SDS011;28372;56.832;60.658;2023-04-24T13:29:45;11.27;;;2.30;;
42726;SDS011;28372;56.832;60.658;2023-04-24T13:32:13;7.43;;;2.20;;
42726;SDS011;28372;56.832;60.658;2023-04-24T13:34:40;7.70;;;2.25;;
42726;SDS011;28372;56.832;60.658;2023-04-24T13:37:08;11.73;;;4.93;;
42726;SDS011;28372;56.832;60.658;2023-04-24T13:39:36;10.10;;;3.38;;
42726;SDS011;28372;56.832;60.658;2023-04-24T13:42:03;13.57;;;4.85;;
42726;SDS011;28372;56.832;60.658;2023-04-24T13:44:31;9.30;;;2.70;;
42726;SDS011;28372;56.832;60.658;2023-04-24T13:46:58;7.10;;;2.83;;
42726;SDS011;28372;56.832;60.658;2023-04-24T13:49:26;11.82;;;3.05;;
42726;SDS011;28372;56.832;60.658;2023-04-24T13:51:54;9.02;;;2.70;;
42726;SDS011;28372;56.832;60.658;2023-04-24T13:54:23;8.05;;;2.60;;
42726;SDS011;28372;56.832;60.658;2023-04-24T13:56:53;5.85;;;2.30;;
42726;SDS011;28372;56.832;60.658;2023-04-24T13:59:20;5.65;;;2.38;;
42726;SDS011;28372;56.832;60.658;2023-04-24T14:01:48;9.55;;;2.80;;
42726;SDS011;28372;56.832;60.658;2023-04-24T14:04:16;9.30;;;2.42;;
42726;SDS011;28372;56.832;60.658;2023-04-24T14:06:44;9.50;;;3.47;;
42726;SDS011;28372;56.832;60.658;2023-04-24T14:09:12;10.50;;;3.53;;
42726;SDS011;28372;56.832;60.658;2023-04-24T14:11:40;6.55;;;2.67;;
42726;SDS011;28372;56.832;60.658;2023-04-24T14:14:07;10.45;;;3.10;;
42726;SDS011;28372;56.832;60.658;2023-04-24T14:16:35;10.27;;;3.00;;
42726;SDS011;28372;56.832;60.658;2023-04-24T14:19:03;15.82;;;3.03;;
42726;SDS011;28372;56.832;60.658;2023-04-24T14:21:32;9.13;;;2.63;;
42726;SDS011;28372;56.832;60.658;2023-04-24T14:24:00;12.98;;;3.30;;
42726;SDS011;28372;56.832;60.658;2023-04-24T14:26:27;7.63;;;2.50;;
42726;SDS011;28372;56.832;60.658;2023-04-24T14:28:55;11.80;;;3.08;;
42726;SDS011;28372;56.832;60.658;2023-04-24T14:31:40;11.13;;;2.70;;
42726;SDS011;28372;56.832;60.658;2023-04-24T14:34:08;12.38;;;2.88;;
42726;SDS011;28372;56.832;60.658;2023-04-24T14:36:36;11.93;;;2.45;;
42726;SDS011;28372;56.832;60.658;2023-04-24T14:39:04;8.77;;;2.60;;
42726;SDS011;28372;56.832;60.658;2023-04-24T14:41:34;12.50;;;2.90;;
42726;SDS011;28372;56.832;60.658;2023-04-24T14:44:03;15.48;;;3.20;;
42726;SDS011;28372;56.832;60.658;2023-04-24T14:46:31;13.48;;;2.97;;
42726;SDS011;28372;56.832;60.658;2023-04-24T14:48:59;17.80;;;3.00;;
42726;SDS011;28372;56.832;60.658;2023-04-24T14:51:27;19.67;;;3.17;;
42726;SDS011;28372;56.832;60.658;2023-04-24T14:53:55;18.42;;;3.30;;
42726;SDS011;28372;56.832;60.658;2023-04-24T14:56:23;12.45;;;2.65;;
42726;SDS011;28372;56.832;60.658;2023-04-24T14:58:51;19.17;;;3.55;;
42726;SDS011;28372;56.832;60.658;2023-04-24T15:01:19;16.40;;;3.55;;